Time,TemperatureF,DewpointF,PressureIn,WindDirection,WindDirectionDegrees,WindSpeedMPH,WindSpeedGustMPH,Humidity,HourlyPrecipIn,Conditions,Clouds,dailyrainin,SolarRadiationWatts/m^2,SoftwareType,DateUTC
2013-12-23 00:03:00,15.2,10.0,30.82,ESE,120,1.0,2.0,79,0.00,,,0.00,0,weatherlink.com 1.10,2013-12-23 07:03:00,
2013-12-23 00:18:00,14.9,10.0,30.83,WNW,294,0.0,4.0,80,0.00,,,0.00,0,weatherlink.com 1.10,2013-12-23 07:18:00,
2013-12-23 00:33:00,14.9,10.0,30.84,WSW,239,2.0,2.0,79,0.00,,,0.00,0,weatherlink.com 1.10,2013-12-23 07:33:00,
2013-12-23 00:48:00,14.6,9.0,30.84,SW,232,0.0,2.0,79,0.00,,,0.00,0,weatherlink.com 1.10,2013-12-23 07:48:00,
2013-12-23 01:03:00,13.5,9.0,30.84,SW,216,0.0,1.0,81,0.00,,,0.00,0,weatherlink.com 1.10,2013-12-23 08:03:00,
2013-12-23 01:18:00,14.5,9.0,30.85,SSW,205,0.0,2.0,79,0.00,,,0.00,0,weatherlink.com 1.10,2013-12-23 08:18:00,
2013-12-23 01:33:00,13.7,9.0,30.84,SSW,205,1.0,2.0,80,0.00,,,0.00,0,weatherlink.com 1.10,2013-12-23 08:33:00,
2013-12-23 01:48:00,14.1,9.0,30.85,WSW,244,2.0,3.0,80,0.00,,,0.00,0,weatherlink.com 1.10,2013-12-23 08:48:00,
2013-12-23 02:03:00,14.3,9.0,30.86,SSW,198,0.0,1.0,79,0.00,,,0.00,0,weatherlink.com 1.10,2013-12-23 09:03:00,
2013-12-23 02:18:00,14.1,9.0,30.88,WNW,298,0.0,2.0,79,0.00,,,0.00,0,weatherlink.com 1.10,2013-12-23 09:18:00,
2013-12-23 02:33:00,13.3,8.0,30.88,NNE,30,0.0,2.0,80,0.00,,,0.00,0,weatherlink.com 1.10,2013-12-23 09:33:00,
2013-12-23 02:48:00,12.7,8.0,30.88,ESE,120,0.0,2.0,82,0.00,,,0.00,0,weatherlink.com 1.10,2013-12-23 09:48:00,
2013-12-23 03:03:00,12.8,8.0,30.89,ESE,118,0.0,1.0,81,0.00,,,0.00,0,weatherlink.com 1.10,2013-12-23 10:03:00,
2013-12-23 03:18:00,11.9,7.0,30.90,East,82,0.0,1.0,82,0.00,,,0.00,0,weatherlink.com 1.10,2013-12-23 10:18:00,
2013-12-23 03:33:00,12.7,8.0,30.90,SE,144,0.0,2.0,82,0.00,,,0.00,0,weatherlink.com 1.10,2013-12-23 10:33:00,
2013-12-23 03:48:00,12.7,8.0,30.91,North,355,1.0,1.0,82,0.00,,,0.00,0,weatherlink.com 1.10,2013-12-23 10:48:00,
2013-12-23 04:03:00,13.3,9.0,30.90,ENE,61,0.0,3.0,81,0.00,,,0.00,0,weatherlink.com 1.10,2013-12-23 11:03:00,
2013-12-23 04:18:00,12.9,8.0,30.90,West,279,0.0,4.0,82,0.00,,,0.00,0,weatherlink.com 1.10,2013-12-23 11:18:00,
2013-12-23 04:34:00,12.8,8.0,30.91,SSW,201,0.0,2.0,82,0.00,,,0.00,0,weatherlink.com 1.10,2013-12-23 11:34:00,
2013-12-23 04:49:00,12.8,8.0,30.92,ESE,121,0.0,3.0,81,0.00,,,0.00,0,weatherlink.com 1.10,2013-12-23 11:49:00,
2013-12-23 05:04:00,12.7,8.0,30.92,SE,131,0.0,1.0,80,0.00,,,0.00,0,weatherlink.com 1.10,2013-12-23 12:04:00,
2013-12-23 05:19:00,12.4,8.0,30.93,ESE,117,0.0,3.0,81,0.00,,,0.00,0,weatherlink.com 1.10,2013-12-23 12:19:00,
2013-12-23 05:34:00,12.9,8.0,30.94,NE,42,0.0,3.0,79,0.00,,,0.00,0,weatherlink.com 1.10,2013-12-23 12:34:00,
2013-12-23 05:49:00,12.6,7.0,30.94,NE,42,0.0,2.0,79,0.00,,,0.00,0,weatherlink.com 1.10,2013-12-23 12:49:00,
2013-12-23 06:04:00,12.8,7.0,30.95,NE,52,0.0,1.0,78,0.00,,,0.00,0,weatherlink.com 1.10,2013-12-23 13:04:00,
2013-12-23 06:19:00,12.3,7.0,30.96,NE,52,0.0,0.0,78,0.00,,,0.00,0,weatherlink.com 1.10,2013-12-23 13:19:00,
2013-12-23 06:34:00,12.2,7.0,30.96,NE,51,0.0,1.0,79,0.00,,,0.00,0,weatherlink.com 1.10,2013-12-23 13:34:00,
2013-12-23 06:49:00,11.9,7.0,30.97,NE,51,0.0,1.0,80,0.00,,,0.00,0,weatherlink.com 1.10,2013-12-23 13:49:00,
2013-12-23 07:04:00,11.8,7.0,30.97,East,81,0.0,2.0,80,0.00,,,0.00,0,weatherlink.com 1.10,2013-12-23 14:04:00,
2013-12-23 07:19:00,14.0,7.0,30.98,SSE,150,0.0,4.0,75,0.00,,,0.00,5,weatherlink.com 1.10,2013-12-23 14:19:00,
2013-12-23 07:34:00,13.0,7.0,30.98,SE,145,0.0,2.0,76,0.00,,,0.00,9,weatherlink.com 1.10,2013-12-23 14:34:00,
2013-12-23 07:49:00,13.7,7.0,30.99,SE,145,0.0,2.0,74,0.00,,,0.00,11,weatherlink.com 1.10,2013-12-23 14:49:00,
2013-12-23 08:04:00,13.9,6.0,31.01,SE,129,0.0,2.0,72,0.00,,,0.00,12,weatherlink.com 1.10,2013-12-23 15:04:00,
2013-12-23 08:19:00,13.9,7.0,31.01,SE,129,1.0,1.0,73,0.00,,,0.00,12,weatherlink.com 1.10,2013-12-23 15:19:00,
2013-12-23 08:34:00,15.0,7.0,31.02,SE,129,0.0,2.0,69,0.00,,,0.00,18,weatherlink.com 1.10,2013-12-23 15:34:00,
2013-12-23 08:49:00,16.2,7.0,31.02,SE,126,0.0,1.0,67,0.00,,,0.00,25,weatherlink.com 1.10,2013-12-23 15:49:00,
2013-12-23 09:04:00,16.4,8.0,31.03,SE,126,0.0,0.0,69,0.00,,,0.00,32,weatherlink.com 1.10,2013-12-23 16:04:00,
2013-12-23 09:19:00,17.3,8.0,31.03,ESE,123,0.0,0.0,68,0.00,,,0.00,33,weatherlink.com 1.10,2013-12-23 16:19:00,
2013-12-23 09:34:00,19.3,8.0,31.04,South,188,0.0,1.0,61,0.00,,,0.00,37,weatherlink.com 1.10,2013-12-23 16:34:00,
2013-12-23 09:49:00,20.6,7.0,31.05,South,188,0.0,1.0,56,0.00,,,0.00,40,weatherlink.com 1.10,2013-12-23 16:49:00,
2013-12-23 10:04:00,21.7,7.0,31.05,South,188,0.0,1.0,53,0.00,,,0.00,40,weatherlink.com 1.10,2013-12-23 17:04:00,
2013-12-23 10:19:00,23.1,6.0,31.05,South,173,0.0,2.0,49,0.00,,,0.00,46,weatherlink.com 1.10,2013-12-23 17:19:00,
2013-12-23 10:34:00,24.4,9.0,31.05,North,360,0.0,2.0,51,0.00,,,0.00,334,weatherlink.com 1.10,2013-12-23 17:34:00,
2013-12-23 10:49:00,26.1,8.0,31.05,SW,233,2.0,3.0,46,0.00,,,0.00,287,weatherlink.com 1.10,2013-12-23 17:49:00,
2013-12-23 11:05:00,27.0,8.0,31.04,SW,223,0.0,3.0,44,0.00,,,0.00,489,weatherlink.com 1.10,2013-12-23 18:05:00,
2013-12-23 11:20:00,28.1,9.0,31.04,WSW,238,1.0,2.0,44,0.00,,,0.00,524,weatherlink.com 1.10,2013-12-23 18:20:00,
2013-12-23 11:35:00,28.4,9.0,31.04,WSW,240,4.0,4.0,44,0.00,,,0.00,538,weatherlink.com 1.10,2013-12-23 18:35:00,
2013-12-23 11:50:00,28.7,8.0,31.03,WSW,246,2.0,4.0,42,0.01,,,0.01,547,weatherlink.com 1.10,2013-12-23 18:50:00,
2013-12-23 12:05:00,29.2,7.0,31.02,West,261,0.0,4.0,39,0.01,,,0.01,554,weatherlink.com 1.10,2013-12-23 19:05:00,
2013-12-23 12:20:00,29.2,9.0,31.02,West,278,2.0,4.0,43,0.01,,,0.01,555,weatherlink.com 1.10,2013-12-23 19:20:00,
2013-12-23 12:35:00,28.8,6.0,31.02,WSW,256,2.0,5.0,38,0.02,,,0.02,540,weatherlink.com 1.10,2013-12-23 19:35:00,
2013-12-23 12:50:00,29.4,5.0,31.02,WNW,298,3.0,5.0,35,0.01,,,0.02,90,weatherlink.com 1.10,2013-12-23 19:50:00,
2013-12-23 13:05:00,29.5,5.0,31.01,NW,306,1.0,7.0,35,0.01,,,0.02,65,weatherlink.com 1.10,2013-12-23 20:05:00,
2013-12-23 13:20:00,29.7,6.0,31.00,WSW,238,1.0,8.0,37,0.01,,,0.02,62,weatherlink.com 1.10,2013-12-23 20:20:00,
2013-12-23 13:35:00,30.3,6.0,31.00,South,187,1.0,5.0,36,0.00,,,0.02,102,weatherlink.com 1.10,2013-12-23 20:35:00,
2013-12-23 13:50:00,29.7,6.0,30.99,WNW,301,3.0,6.0,37,0.00,,,0.02,60,weatherlink.com 1.10,2013-12-23 20:50:00,
2013-12-23 14:05:00,29.8,7.0,31.00,NW,317,5.0,11.0,38,0.00,,,0.02,70,weatherlink.com 1.10,2013-12-23 21:05:00,
2013-12-23 14:35:00,29.6,11.0,30.99,WSW,252,4.0,6.0,45,0.00,,,0.02,120,weatherlink.com 1.10,2013-12-23 21:35:00,
2013-12-23 14:50:00,29.6,9.0,31.00,West,268,2.0,6.0,43,0.00,,,0.02,58,weatherlink.com 1.10,2013-12-23 21:50:00,
2013-12-23 15:05:00,29.5,10.0,31.00,West,264,1.0,5.0,44,0.00,,,0.02,49,weatherlink.com 1.10,2013-12-23 22:05:00,
2013-12-23 15:20:00,29.0,9.0,31.00,WSW,249,3.0,5.0,43,0.00,,,0.02,62,weatherlink.com 1.10,2013-12-23 22:20:00,
2013-12-23 15:35:00,28.3,8.0,31.00,WSW,244,5.0,6.0,42,0.00,,,0.02,49,weatherlink.com 1.10,2013-12-23 22:35:00,
2013-12-23 15:50:00,27.8,7.0,30.99,SW,227,7.0,8.0,42,0.00,,,0.02,44,weatherlink.com 1.10,2013-12-23 22:50:00,
2013-12-23 16:05:00,27.1,9.0,31.00,SW,230,3.0,7.0,47,0.00,,,0.02,32,weatherlink.com 1.10,2013-12-23 23:05:00,
2013-12-23 16:20:00,26.5,8.0,31.00,West,273,3.0,5.0,46,0.00,,,0.02,28,weatherlink.com 1.10,2013-12-23 23:20:00,
2013-12-23 16:35:00,25.9,8.0,31.00,SW,236,3.0,7.0,46,0.00,,,0.02,14,weatherlink.com 1.10,2013-12-23 23:35:00,
2013-12-23 16:50:00,25.3,8.0,31.00,West,269,0.0,8.0,49,0.00,,,0.02,5,weatherlink.com 1.10,2013-12-23 23:50:00,
2013-12-23 17:05:00,25.1,7.0,31.00,WSW,247,3.0,7.0,47,0.00,,,0.02,0,weatherlink.com 1.10,2013-12-24 00:05:00,
2013-12-23 17:20:00,24.4,6.0,31.01,WSW,252,0.0,1.0,45,0.00,,,0.02,0,weatherlink.com 1.10,2013-12-24 00:20:00,
2013-12-23 17:35:00,24.1,7.0,31.01,SSW,205,0.0,3.0,49,0.00,,,0.02,0,weatherlink.com 1.10,2013-12-24 00:35:00,
2013-12-23 17:50:00,23.8,7.0,31.01,SW,227,1.0,2.0,49,0.00,,,0.02,0,weatherlink.com 1.10,2013-12-24 00:50:00,
2013-12-23 18:05:00,23.1,7.0,31.01,North,360,0.0,4.0,51,0.00,,,0.02,0,weatherlink.com 1.10,2013-12-24 01:05:00,
2013-12-23 18:20:00,23.9,9.0,31.02,SE,146,4.0,5.0,53,0.00,,,0.02,0,weatherlink.com 1.10,2013-12-24 01:20:00,
2013-12-23 18:35:00,23.5,9.0,31.01,SSE,151,0.0,4.0,54,0.00,,,0.02,0,weatherlink.com 1.10,2013-12-24 01:35:00,
2013-12-23 18:50:00,23.7,8.0,31.01,SW,226,1.0,3.0,52,0.00,,,0.02,0,weatherlink.com 1.10,2013-12-24 01:50:00,
2013-12-23 19:05:00,23.0,9.0,31.01,NW,311,3.0,6.0,55,0.00,,,0.02,0,weatherlink.com 1.10,2013-12-24 02:05:00,
2013-12-23 19:20:00,23.2,9.0,31.02,WSW,246,2.0,5.0,54,0.00,,,0.02,0,weatherlink.com 1.10,2013-12-24 02:20:00,
2013-12-23 19:35:00,22.7,9.0,31.02,WSW,240,1.0,4.0,55,0.00,,,0.02,0,weatherlink.com 1.10,2013-12-24 02:35:00,
2013-12-23 19:50:00,23.1,8.0,31.02,West,264,2.0,5.0,52,0.00,,,0.02,0,weatherlink.com 1.10,2013-12-24 02:50:00,
2013-12-23 20:05:00,23.0,8.0,31.02,East,84,0.0,5.0,52,0.00,,,0.02,0,weatherlink.com 1.10,2013-12-24 03:05:00,
2013-12-23 20:20:00,21.9,7.0,31.02,East,92,0.0,2.0,53,0.00,,,0.02,0,weatherlink.com 1.10,2013-12-24 03:20:00,
2013-12-23 20:35:00,22.0,7.0,31.02,East,80,0.0,3.0,53,0.00,,,0.02,0,weatherlink.com 1.10,2013-12-24 03:35:00,
2013-12-23 20:50:00,22.0,7.0,31.02,ESE,119,0.0,1.0,53,0.00,,,0.02,0,weatherlink.com 1.10,2013-12-24 03:50:00,
2013-12-23 21:05:00,21.6,7.0,31.02,SSE,148,0.0,1.0,53,0.00,,,0.02,0,weatherlink.com 1.10,2013-12-24 04:05:00,
2013-12-23 21:20:00,21.1,6.0,31.02,SSE,148,0.0,0.0,53,0.00,,,0.02,0,weatherlink.com 1.10,2013-12-24 04:20:00,
2013-12-23 21:35:00,21.0,7.0,31.01,SSE,148,0.0,1.0,55,0.00,,,0.02,0,weatherlink.com 1.10,2013-12-24 04:35:00,
2013-12-23 21:50:00,20.9,8.0,31.01,ESE,123,1.0,2.0,57,0.00,,,0.02,0,weatherlink.com 1.10,2013-12-24 04:50:00,
2013-12-23 22:05:00,21.5,8.0,31.01,ESE,119,0.0,1.0,56,0.00,,,0.02,0,weatherlink.com 1.10,2013-12-24 05:05:00,
2013-12-23 22:20:00,21.3,7.0,31.01,SSW,213,0.0,1.0,54,0.00,,,0.02,0,weatherlink.com 1.10,2013-12-24 05:20:00,
2013-12-23 22:35:00,21.6,6.0,31.01,SSW,196,0.0,1.0,52,0.00,,,0.02,0,weatherlink.com 1.10,2013-12-24 05:35:00,
2013-12-23 22:50:00,21.5,7.0,31.00,SSW,196,0.0,0.0,53,0.00,,,0.02,0,weatherlink.com 1.10,2013-12-24 05:50:00,
2013-12-23 23:05:00,21.3,6.0,31.00,SSW,196,0.0,1.0,52,0.00,,,0.02,0,weatherlink.com 1.10,2013-12-24 06:05:00,
2013-12-23 23:20:00,22.1,6.0,31.00,South,175,0.0,1.0,50,0.00,,,0.02,0,weatherlink.com 1.10,2013-12-24 06:20:00,
2013-12-23 23:35:00,22.3,6.0,31.01,South,171,0.0,2.0,49,0.00,,,0.02,0,weatherlink.com 1.10,2013-12-24 06:35:00,
2013-12-23 23:50:00,21.2,6.0,31.00,South,171,0.0,1.0,52,0.00,,,0.02,0,weatherlink.com 1.10,2013-12-24 06:50:00,